SEBI

Registration No.

INH000000305

Ip Address Lookup

So far visitors:

customizable counter

TRIAL

TRIAL

SEND SMS FOR TRIAL

EQUITY - COMMODITY OR BOTH

TO

 09920033678

AND GET TRIAL

 


Information: COPPER (MCX): LOT SIZE CHANGED TO 2500 from 1000 (from JUL CONTRACT)

SEBI Registration No.: INH000000305 *****

* Commodity: 9500/month * Equity: 6000/month


* Gold Package: 7000 * Gold-Silver Package: 8100
*Crude-NG-Copper-Nickel Package: 6000


To See Past Performance, Click Here

For Registration,

click here

Past Performance >> Equity Tips
 
Search
 
Entry Start Date Entry End Date
Exit Start Date Exit End Date
Scrip Name Contract
Package
 

Packages: Precious Metals - Energy and Base Metals - Profit is calculated on basis of 1 lot per call

Package: Equity calls: Profit is calculated as follows:

1. If the scrip is in F & O then 1 lot is counted otherwise

2. Trade of Rs.1,50,000/- per call is counted.

 
Page: ( 1 2 3 4 5 6 7 8 9 10 11 12 13 14 15 16 17 18 19 20 21 22 23 24 25 26 27 28 29 30 31 32 33 34 35 36 37 38 39 40 41 42 43 44 45 46 47 48 49 50 51 52 53 54 55 56 57 58 59 60 61 62 63 64 65 66 67 68 69 70 71 72 73 74 75 76 77 78 79 80 81 82 83 84 85 86 87 88 89 90 91 92 93 94 95 96 97 98 99 100 101 102 103 104 105 106 107 108 109 110 111 112 113 114 115 116 117 118 119 120 121 122 123 124 125 126 127 128 129 130 ) [Current Page: 49]
Displaying 3601 to 3675   Calls
Entry Date Type Scrip Entry Price (Rs) T1
(Rs)
T2
(Rs)
T3
(Rs)
Stop Loss
(Rs)
Exit Date Exit Rate
(Rs)
Profit
(Rs)
 
25-04-16 Buy VOLTAS 300.50 304 308 312 295 25-04-16 295 -8800.00 More
25-04-16 Sell LICHSGFIN 458.50 453 445 440 463 25-04-16 455 3850.00 More
25-04-16 Sell TATA STEEL 351 347 342 340 355 25-04-16 345.50 11000.00 More
22-04-16 Buy TATA MOTORS 418 422 426 435 408 22-04-16 418 0.00 More
22-04-16 Buy CIPLA 530 535 545 560 527 22-04-16 536 4800.00 More
22-04-16 Buy MARUTI 3714 3735 3750 3825 3680 22-04-16 3745 3875.00 More
22-04-16 Buy MARICO 261 270 280 290 250 27-04-16 250 -28600.00 More
21-04-16 Buy NIFTY 7940 7960 7980 7990 7910 21-04-16 7942 150.00 More
21-04-16 Buy 371.50 375 380 385 364 22-04-16 366 -7700.00 More
20-04-16 Buy ZEEL 401 408 415 425 395 21-04-16 404.90 3900.00 More
20-04-16 Buy 1260 1290 1310 1350 1235 21-04-16 1276 4800.00 More
20-04-16 Buy BANK NIFTY 16300 16350 16400 16550 16225 20-04-16 16360 3600.00 More
20-04-16 Buy NIFTY 7940 7950 7960 7975/8000 7900 20-04-16 7959 1425.00 More
18-04-16 Buy MARUTI 3750 3775 3800 3950/4000 3685 20-04-16 3685 -8125.00 More
18-04-16 Buy HERO MOTOR 3125 3150 3175 3225 3100 18-04-16 3100 -5000.00 More
18-04-16 Buy CIPLA 510 514 518 525 507 18-04-16 521 8800.00 More
18-04-16 Buy TATA MOTORS 404 408 412 425 392 18-04-16 404 0.00 More
13-04-16 Buy CIPLA 513 523 533 545 498 20-04-16 531.90 15120.00 More
13-04-16 Buy AURO PHARMA 795 800 810 835 785 13-04-16 785 -7000.00 More
13-04-16 Buy TATA MOTORS 402 406 408 415 392 13-04-16 411 13500.00 More
12-04-16 Buy 349 352 354 360 344 12-04-16 351.75 3300.00 More
12-04-16 Buy IDEA 115 117 119 121 112.50 13-04-16 116. 2000.00 More
12-04-16 Buy INFY 1190 1200 1210 1220 1180 13-04-16 1180 -5000.00 More
11-04-16 Buy ICICI BANK 223.50 226 228 236 220 11-04-16 226 4250.00 More
11-04-16 Buy BANK NIFTY 15630 15680 15775 15850 15550 11-04-16 15550 -4800.00 More
11-04-16 Buy ZEEL 392 394 396 398 388 11-04-16 390 -2000.00 More
11-04-16 Sell IRB Infra 218 216 214 210 221.50 11-04-16 221.50 -7350.00 More
11-04-16 Buy Karnataka Bank 104.50 106.50 108 110 103 11-04-16 105.25 1500.00 More
08-04-16 Buy BPCL 897 905 910 935 890 08-04-16 903 3600.00 More
08-04-16 Buy BHEL 121.50 123 125 127/140 117 08-04-16 123 3000.00 More
07-04-16 Sell INFY 1200 1190 1180 1175 1210 07-04-16 1182 9000.00 More
07-04-16 Buy 550 555 560 565 547 07-04-16 547 -3900.00 More
07-04-16 Buy GRASIM 3921 3930 3940 3975 3900 07-04-16 3945 3600.00 More
06-04-16 Sell LICHSGFIN 467 464 455 450 472 06-04-16 470 -3300.00 More
06-04-16 Sell 365 360 355 350 370 06-04-16 366 -1500.00 More
06-04-16 Buy 1188 1200 1210 1235 1170 06-04-16 1215 8100.00 More
06-04-16 Sell AURO PHARMA 754 750 745 740 761 06-04-16 751.50 1750.00 More
06-04-16 Sell BANK NIFTY 15725 15675 15625 15500 15775 06-04-16 15675 3000.00 More
06-04-16 Buy M&M 1230 1240 1250 1260 1220 06-04-16 1240 4000.00 More
04-04-16 Buy BANK NIFTY 16200 16240 16280 16300/16500 16180 04-04-16 16180 -1200.00 More
04-04-16 Buy HCC 20 22 24 26 18 07-04-16 21.50 7500.00 More
04-04-16 Buy AXIS BANK 450 455 460 465 445 04-04-16 445 -5000.00 More
04-04-16 Buy PNB 88.50 90 92 96 85 05-04-16 85 -14000.00 More
04-04-16 Buy BHEL 119 121 123 125/127 116 04-04-16 116 -6000.00 More
01-04-16 Buy BHEL 120 124 128 135/140 114 05-04-16 114 -12000.00 More
01-04-16 Buy ARVIND 278 280 282 284 275 01-04-16 281 5100.00 More
01-04-16 Buy IRB Infra 235.50 238 240 242 232 01-04-16 240 9450.00 More
01-04-16 Buy ICICI BANK 235.50 238 240 242 232 01-04-16 235.50 0.00 More
31-03-16 Buy ICICI BANK 240 244 248 255 234 31-03-16 237 -5100.00 More
31-03-16 Buy BANK NIFTY 16200 16250 16300 16350 16100 31-03-16 16280 4800.00 More
31-03-16 Buy 539 544 548 555 535 31-03-16 535 -5200.00 More
30-03-16 Buy NIFTY 7660 7675 7690 7710 7635 30-03-16 7710 3750.00 More
30-03-16 Buy RELIANCE 1046 1050 1055 1065 1033 30-03-16 1050.50 2250.00 More
30-03-16 Buy BANK NIFTY 15815 15850 15900 15950 15790 30-03-16 15980 9900.00 More
30-03-16 Buy AXIS BANK 435 438 442 445/460 429 30-03-16 445 10000.00 More
29-03-16 Buy BHEL 111.50 113 115 117 110 29-03-16 113.50 4000.00 More
29-03-16 Buy ACC 1388 1400 1410 1435 1365 29-03-16 1365 -8625.00 More
29-03-16 Buy HERO MOTOR 2866 2875 2885 2900 2850 29-03-16 2888 4400.00 More
28-03-16 Buy TATA STEEL 313 315 317 319 310 28-03-16 310 -6000.00 More
28-03-16 Buy MARUTI 3757 3775 3800 3850 3700 28-03-16 3779 2750.00 More
28-03-16 Buy JET AIR 562 566 568 575 555 28-03-16 566.85 4365.00 More
28-03-16 Buy ABNuvo 842 846 848 855 830 28-03-16 851 8100.00 More
23-03-16 Buy Hind Oil Exploration 32.70 34 36 39 30 27-04-16 38 15900.00 More
23-03-16 Buy 1234 1245 1255 1275 1209 23-03-16 1251 5100.00 More
23-03-16 Buy HDIL 73 74 75 76 72 23-03-16 73.15 900.00 More
23-03-16 Buy HDFC BANK 1050 1055 1060 1075 1040 23-03-16 1055 2500.00 More
23-03-16 Buy Tata Power 62.50 64 66 69 59 23-03-16 62.80 2400.00 More
22-03-16 Sell NIFTY 7690 7670 7650 7640 7730 22-03-16 7670 1500.00 More
22-03-16 Buy AXIS BANK 445 448 452 465 438 22-03-16 444 -1000.00 More
22-03-16 Buy HDFC BANK 1051 1060 1070 1080 1040 22-03-16 1048 -1500.00 More
22-03-16 Buy 1240 1250 1260 1275 1232 22-03-16 1248 2400.00 More
21-03-16 Buy JET AIR 533 540 550 560 524 21-03-16 552 17100.00 More
21-03-16 Buy TCS 2430 2440 2450 2455 2409 21-03-16 2453 4600.00 More
21-03-16 Buy ACC 1340 1350 1360 1375 1319 21-03-16 1375 13125.00 More
21-03-16 Buy BHEL 113 115 117 121 107 22-03-16 117.25 8500.00 More
Page wise profit 113610.00 Rs
Profit 36375341.00 Rs
TRIAL

TRIAL

SEND SMS FOR TRIAL

EQUITY - COMMODITY OR BOTH

TO

 09920033678

AND GET TRIAL